Terminal Aerodrome Forecast
Issued by NWS Louisville, KY

Home | Current Version | Previous Version | Text Only | Print | Product List | Glossary On
Versions: 1 2 3 4 5 6 7 8 9 10 11 12 13 14 15 16 17 18
985
FTUS43 KLMK 120806 AAA
TAFBWG
TAF AMD
KBWG 120806Z 1208/1306 04003KT P6SM OVC100
     FM120900 VRB03KT 4SM -SN BR BKN022
      TEMPO 1210/1213 1SM -SN BR BKN009
     FM121500 32005KT P6SM BKN025
     FM122200 30009G17KT P6SM BKN035
     FM130100 32008KT P6SM BKN035=

USA.gov is the U.S. government's official web portal to all federal, state and local government web resources and services.